sensor_id;sensor_type;location;lat;lon;timestamp;P1;durP1;ratioP1;P2;durP2;ratioP2
17670;SDS011;8954;48.694;8.940;2023-07-31T06:33:50;303.17;;;105.03;;
17670;SDS011;8954;48.694;8.940;2023-07-31T06:36:16;309.60;;;111.73;;
17670;SDS011;8954;48.694;8.940;2023-07-31T06:38:42;288.17;;;96.07;;
17670;SDS011;8954;48.694;8.940;2023-07-31T06:41:08;284.13;;;91.40;;
17670;SDS011;8954;48.694;8.940;2023-07-31T06:43:35;281.80;;;89.80;;
17670;SDS011;8954;48.694;8.940;2023-07-31T06:46:07;281.97;;;88.30;;
17670;SDS011;8954;48.694;8.940;2023-07-31T06:48:33;290.53;;;96.17;;
17670;SDS011;8954;48.694;8.940;2023-07-31T06:50:59;284.83;;;94.30;;
17670;SDS011;8954;48.694;8.940;2023-07-31T06:53:27;287.93;;;98.33;;
17670;SDS011;8954;48.694;8.940;2023-07-31T06:55:53;289.10;;;98.93;;
17670;SDS011;8954;48.694;8.940;2023-07-31T06:58:19;285.80;;;99.30;;
17670;SDS011;8954;48.694;8.940;2023-07-31T07:00:45;302.92;;;128.52;;
17670;SDS011;8954;48.694;8.940;2023-07-31T07:03:10;287.90;;;106.87;;
17670;SDS011;8954;48.694;8.940;2023-07-31T07:05:36;287.57;;;103.17;;
17670;SDS011;8954;48.694;8.940;2023-07-31T07:08:02;288.43;;;104.10;;
17670;SDS011;8954;48.694;8.940;2023-07-31T07:10:27;289.03;;;105.23;;
17670;SDS011;8954;48.694;8.940;2023-07-31T07:12:53;287.20;;;102.80;;
17670;SDS011;8954;48.694;8.940;2023-07-31T07:15:20;287.67;;;102.47;;
17670;SDS011;8954;48.694;8.940;2023-07-31T07:17:46;288.17;;;103.60;;
17670;SDS011;8954;48.694;8.940;2023-07-31T07:20:12;292.30;;;112.50;;
17670;SDS011;8954;48.694;8.940;2023-07-31T07:22:37;287.90;;;103.80;;
17670;SDS011;8954;48.694;8.940;2023-07-31T07:25:03;288.80;;;104.57;;
17670;SDS011;8954;48.694;8.940;2023-07-31T07:27:30;286.97;;;101.20;;
17670;SDS011;8954;48.694;8.940;2023-07-31T07:29:55;293.17;;;106.50;;
17670;SDS011;8954;48.694;8.940;2023-07-31T07:32:21;290.10;;;105.47;;
17670;SDS011;8954;48.694;8.940;2023-07-31T07:34:47;289.47;;;104.33;;
17670;SDS011;8954;48.694;8.940;2023-07-31T07:37:13;287.40;;;101.30;;
17670;SDS011;8954;48.694;8.940;2023-07-31T07:39:38;286.77;;;98.03;;
17670;SDS011;8954;48.694;8.940;2023-07-31T07:42:04;290.40;;;102.70;;
17670;SDS011;8954;48.694;8.940;2023-07-31T07:44:29;288.60;;;101.97;;
17670;SDS011;8954;48.694;8.940;2023-07-31T07:46:55;290.33;;;104.07;;
17670;SDS011;8954;48.694;8.940;2023-07-31T07:49:20;301.00;;;121.50;;
17670;SDS011;8954;48.694;8.940;2023-07-31T07:51:47;287.67;;;110.93;;
17670;SDS011;8954;48.694;8.940;2023-07-31T07:54:13;287.13;;;108.77;;
17670;SDS011;8954;48.694;8.940;2023-07-31T07:56:39;284.93;;;102.73;;
17670;SDS011;8954;48.694;8.940;2023-07-31T07:59:04;287.50;;;103.73;;
17670;SDS011;8954;48.694;8.940;2023-07-31T08:01:30;284.80;;;101.37;;
17670;SDS011;8954;48.694;8.940;2023-07-31T08:03:56;297.67;;;132.32;;
17670;SDS011;8954;48.694;8.940;2023-07-31T08:06:21;292.87;;;118.30;;
17670;SDS011;8954;48.694;8.940;2023-07-31T08:08:47;290.57;;;114.70;;
17670;SDS011;8954;48.694;8.940;2023-07-31T08:11:13;287.97;;;108.83;;
17670;SDS011;8954;48.694;8.940;2023-07-31T08:13:38;291.77;;;134.33;;
17670;SDS011;8954;48.694;8.940;2023-07-31T08:16:04;295.33;;;123.93;;
17670;SDS011;8954;48.694;8.940;2023-07-31T08:18:30;293.37;;;117.80;;
17670;SDS011;8954;48.694;8.940;2023-07-31T08:20:57;294.10;;;119.77;;
17670;SDS011;8954;48.694;8.940;2023-07-31T08:23:22;292.60;;;116.27;;
17670;SDS011;8954;48.694;8.940;2023-07-31T08:25:48;290.50;;;111.47;;
17670;SDS011;8954;48.694;8.940;2023-07-31T08:28:15;290.20;;;113.03;;
17670;SDS011;8954;48.694;8.940;2023-07-31T08:30:41;290.23;;;112.23;;
17670;SDS011;8954;48.694;8.940;2023-07-31T08:33:07;290.77;;;113.40;;
17670;SDS011;8954;48.694;8.940;2023-07-31T08:35:32;289.63;;;110.50;;
17670;SDS011;8954;48.694;8.940;2023-07-31T08:37:58;289.27;;;110.63;;
17670;SDS011;8954;48.694;8.940;2023-07-31T08:40:24;305.37;;;137.23;;
17670;SDS011;8954;48.694;8.940;2023-07-31T08:42:53;288.80;;;145.03;;
17670;SDS011;8954;48.694;8.940;2023-07-31T08:45:21;296.08;;;138.10;;
17670;SDS011;8954;48.694;8.940;2023-07-31T08:47:51;299.10;;;132.93;;
17670;SDS011;8954;48.694;8.940;2023-07-31T08:50:17;299.20;;;131.73;;
17670;SDS011;8954;48.694;8.940;2023-07-31T08:52:48;298.77;;;131.20;;
17670;SDS011;8954;48.694;8.940;2023-07-31T08:55:14;300.37;;;135.70;;
17670;SDS011;8954;48.694;8.940;2023-07-31T08:57:40;298.47;;;131.10;;
17670;SDS011;8954;48.694;8.940;2023-07-31T09:00:07;299.80;;;135.10;;
17670;SDS011;8954;48.694;8.940;2023-07-31T09:02:35;297.83;;;131.37;;
17670;SDS011;8954;48.694;8.940;2023-07-31T09:05:06;296.40;;;130.83;;
17670;SDS011;8954;48.694;8.940;2023-07-31T09:07:33;297.00;;;132.43;;
17670;SDS011;8954;48.694;8.940;2023-07-31T09:10:00;304.27;;;142.30;;
17670;SDS011;8954;48.694;8.940;2023-07-31T09:12:25;301.67;;;141.77;;
17670;SDS011;8954;48.694;8.940;2023-07-31T09:14:51;299.67;;;149.57;;
17670;SDS011;8954;48.694;8.940;2023-07-31T09:17:28;302.93;;;147.50;;
17670;SDS011;8954;48.694;8.940;2023-07-31T09:19:55;305.23;;;150.57;;
17670;SDS011;8954;48.694;8.940;2023-07-31T09:22:35;290.50;;;148.70;;
17670;SDS011;8954;48.694;8.940;2023-07-31T09:25:13;303.97;;;149.17;;
17670;SDS011;8954;48.694;8.940;2023-07-31T09:27:45;302.97;;;143.20;;
17670;SDS011;8954;48.694;8.940;2023-07-31T09:30:15;304.57;;;148.43;;
17670;SDS011;8954;48.694;8.940;2023-07-31T09:32:42;299.73;;;134.47;;
17670;SDS011;8954;48.694;8.940;2023-07-31T09:38:00;301.97;;;140.13;;
17670;SDS011;8954;48.694;8.940;2023-07-31T09:43:01;302.90;;;146.57;;
17670;SDS011;8954;48.694;8.940;2023-07-31T09:45:29;302.53;;;144.07;;
17670;SDS011;8954;48.694;8.940;2023-07-31T09:47:55;303.80;;;145.33;;
17670;SDS011;8954;48.694;8.940;2023-07-31T09:50:22;305.57;;;153.53;;
17670;SDS011;8954;48.694;8.940;2023-07-31T09:52:49;303.90;;;149.23;;
17670;SDS011;8954;48.694;8.940;2023-07-31T09:55:15;304.47;;;151.20;;
17670;SDS011;8954;48.694;8.940;2023-07-31T09:57:42;306.30;;;158.97;;
17670;SDS011;8954;48.694;8.940;2023-07-31T10:00:11;306.07;;;165.93;;
17670;SDS011;8954;48.694;8.940;2023-07-31T10:02:41;305.90;;;170.53;;
17670;SDS011;8954;48.694;8.940;2023-07-31T10:05:09;302.20;;;168.27;;
17670;SDS011;8954;48.694;8.940;2023-07-31T10:07:37;303.97;;;173.73;;
17670;SDS011;8954;48.694;8.940;2023-07-31T10:10:04;303.43;;;183.40;;
17670;SDS011;8954;48.694;8.940;2023-07-31T10:12:32;293.67;;;168.50;;
17670;SDS011;8954;48.694;8.940;2023-07-31T10:14:59;291.40;;;183.33;;
17670;SDS011;8954;48.694;8.940;2023-07-31T10:17:26;291.80;;;190.00;;
17670;SDS011;8954;48.694;8.940;2023-07-31T10:19:51;286.37;;;187.50;;
17670;SDS011;8954;48.694;8.940;2023-07-31T10:22:21;290.13;;;202.20;;
17670;SDS011;8954;48.694;8.940;2023-07-31T10:24:47;288.03;;;194.70;;
17670;SDS011;8954;48.694;8.940;2023-07-31T10:27:15;287.93;;;200.97;;
17670;SDS011;8954;48.694;8.940;2023-07-31T10:29:41;285.03;;;195.17;;
17670;SDS011;8954;48.694;8.940;2023-07-31T10:32:09;293.00;;;219.10;;
17670;SDS011;8954;48.694;8.940;2023-07-31T10:34:36;288.30;;;200.67;;
17670;SDS011;8954;48.694;8.940;2023-07-31T10:37:24;289.20;;;193.73;;
17670;SDS011;8954;48.694;8.940;2023-07-31T10:39:57;287.80;;;190.00;;
17670;SDS011;8954;48.694;8.940;2023-07-31T10:42:35;288.00;;;193.90;;
17670;SDS011;8954;48.694;8.940;2023-07-31T10:45:10;289.43;;;200.43;;
17670;SDS011;8954;48.694;8.940;2023-07-31T10:47:42;288.50;;;212.17;;
17670;SDS011;8954;48.694;8.940;2023-07-31T10:50:13;291.70;;;224.57;;
17670;SDS011;8954;48.694;8.940;2023-07-31T10:52:38;293.90;;;233.30;;
17670;SDS011;8954;48.694;8.940;2023-07-31T10:58:08;291.80;;;212.10;;
17670;SDS011;8954;48.694;8.940;2023-07-31T11:03:59;309.95;;;264.38;;
17670;SDS011;8954;48.694;8.940;2023-07-31T11:06:35;291.07;;;185.20;;
17670;SDS011;8954;48.694;8.940;2023-07-31T11:09:01;297.30;;;172.57;;
17670;SDS011;8954;48.694;8.940;2023-07-31T11:11:27;299.37;;;161.40;;
17670;SDS011;8954;48.694;8.940;2023-07-31T11:13:55;298.15;;;190.18;;
17670;SDS011;8954;48.694;8.940;2023-07-31T11:16:22;301.30;;;166.60;;
17670;SDS011;8954;48.694;8.940;2023-07-31T11:18:49;298.17;;;149.80;;
17670;SDS011;8954;48.694;8.940;2023-07-31T11:21:20;300.93;;;149.33;;
17670;SDS011;8954;48.694;8.940;2023-07-31T11:23:47;302.97;;;144.07;;
17670;SDS011;8954;48.694;8.940;2023-07-31T11:26:14;311.13;;;157.30;;
17670;SDS011;8954;48.694;8.940;2023-07-31T11:28:40;309.77;;;149.27;;
17670;SDS011;8954;48.694;8.940;2023-07-31T11:31:08;311.43;;;150.50;;
17670;SDS011;8954;48.694;8.940;2023-07-31T11:33:35;308.20;;;142.63;;
17670;SDS011;8954;48.694;8.940;2023-07-31T11:36:00;308.70;;;141.47;;
17670;SDS011;8954;48.694;8.940;2023-07-31T11:38:27;307.00;;;139.50;;
17670;SDS011;8954;48.694;8.940;2023-07-31T11:40:54;309.63;;;144.83;;
17670;SDS011;8954;48.694;8.940;2023-07-31T11:43:22;291.30;;;155.27;;
17670;SDS011;8954;48.694;8.940;2023-07-31T11:45:49;303.37;;;139.93;;
17670;SDS011;8954;48.694;8.940;2023-07-31T11:48:22;307.80;;;141.87;;
17670;SDS011;8954;48.694;8.940;2023-07-31T11:50:50;305.30;;;134.67;;
17670;SDS011;8954;48.694;8.940;2023-07-31T11:53:17;311.57;;;146.20;;
17670;SDS011;8954;48.694;8.940;2023-07-31T11:55:55;310.63;;;141.53;;
17670;SDS011;8954;48.694;8.940;2023-07-31T11:58:23;308.47;;;136.53;;
17670;SDS011;8954;48.694;8.940;2023-07-31T12:00:49;290.08;;;148.68;;
17670;SDS011;8954;48.694;8.940;2023-07-31T12:03:19;288.88;;;152.63;;
17670;SDS011;8954;48.694;8.940;2023-07-31T12:05:47;299.63;;;132.13;;
17670;SDS011;8954;48.694;8.940;2023-07-31T12:08:13;308.80;;;142.60;;
17670;SDS011;8954;48.694;8.940;2023-07-31T12:10:39;305.07;;;131.73;;
17670;SDS011;8954;48.694;8.940;2023-07-31T12:15:42;299.53;;;122.37;;
17670;SDS011;8954;48.694;8.940;2023-07-31T12:18:12;304.67;;;132.40;;
17670;SDS011;8954;48.694;8.940;2023-07-31T12:20:49;303.90;;;131.27;;
17670;SDS011;8954;48.694;8.940;2023-07-31T12:23:19;302.83;;;129.00;;
17670;SDS011;8954;48.694;8.940;2023-07-31T12:26:11;299.90;;;126.77;;
17670;SDS011;8954;48.694;8.940;2023-07-31T12:28:40;301.80;;;129.07;;
17670;SDS011;8954;48.694;8.940;2023-07-31T12:31:09;302.13;;;131.20;;
17670;SDS011;8954;48.694;8.940;2023-07-31T12:33:37;300.70;;;127.43;;
17670;SDS011;8954;48.694;8.940;2023-07-31T12:36:07;287.13;;;144.38;;
17670;SDS011;8954;48.694;8.940;2023-07-31T12:38:46;293.03;;;128.40;;
17670;SDS011;8954;48.694;8.940;2023-07-31T12:41:15;291.13;;;130.57;;
17670;SDS011;8954;48.694;8.940;2023-07-31T12:43:41;292.47;;;146.90;;
17670;SDS011;8954;48.694;8.940;2023-07-31T12:46:07;282.77;;;143.70;;
17670;SDS011;8954;48.694;8.940;2023-07-31T12:48:33;294.60;;;206.45;;
17670;SDS011;8954;48.694;8.940;2023-07-31T12:50:59;281.40;;;176.10;;
17670;SDS011;8954;48.694;8.940;2023-07-31T12:53:25;280.27;;;175.73;;
17670;SDS011;8954;48.694;8.940;2023-07-31T12:55:50;299.10;;;240.63;;
17670;SDS011;8954;48.694;8.940;2023-07-31T12:58:16;281.43;;;195.27;;
17670;SDS011;8954;48.694;8.940;2023-07-31T13:00:42;281.37;;;194.63;;
17670;SDS011;8954;48.694;8.940;2023-07-31T13:03:08;295.90;;;217.73;;
17670;SDS011;8954;48.694;8.940;2023-07-31T13:05:33;295.13;;;219.40;;
17670;SDS011;8954;48.694;8.940;2023-07-31T13:07:59;296.03;;;224.43;;
17670;SDS011;8954;48.694;8.940;2023-07-31T13:10:25;300.50;;;240.40;;
17670;SDS011;8954;48.694;8.940;2023-07-31T13:12:52;284.33;;;204.13;;
17670;SDS011;8954;48.694;8.940;2023-07-31T13:15:17;347.23;;;311.53;;
17670;SDS011;8954;48.694;8.940;2023-07-31T13:17:43;335.70;;;300.20;;
17670;SDS011;8954;48.694;8.940;2023-07-31T13:20:09;307.80;;;257.40;;
17670;SDS011;8954;48.694;8.940;2023-07-31T13:22:34;299.57;;;232.07;;
17670;SDS011;8954;48.694;8.940;2023-07-31T13:25:00;298.40;;;227.63;;
17670;SDS011;8954;48.694;8.940;2023-07-31T13:27:26;300.13;;;235.40;;
17670;SDS011;8954;48.694;8.940;2023-07-31T13:29:51;300.83;;;217.83;;
17670;SDS011;8954;48.694;8.940;2023-07-31T13:32:17;319.07;;;282.77;;
17670;SDS011;8954;48.694;8.940;2023-07-31T13:34:47;302.07;;;224.17;;
17670;SDS011;8954;48.694;8.940;2023-07-31T13:37:13;308.77;;;221.53;;
17670;SDS011;8954;48.694;8.940;2023-07-31T13:39:39;318.30;;;274.42;;
17670;SDS011;8954;48.694;8.940;2023-07-31T13:42:06;306.27;;;212.47;;
17670;SDS011;8954;48.694;8.940;2023-07-31T13:44:33;310.10;;;194.33;;
17670;SDS011;8954;48.694;8.940;2023-07-31T13:47:05;316.27;;;202.17;;
17670;SDS011;8954;48.694;8.940;2023-07-31T13:49:32;318.13;;;205.90;;
17670;SDS011;8954;48.694;8.940;2023-07-31T13:51:58;321.27;;;204.23;;
17670;SDS011;8954;48.694;8.940;2023-07-31T13:54:23;322.00;;;206.23;;
17670;SDS011;8954;48.694;8.940;2023-07-31T13:56:50;319.53;;;191.57;;
17670;SDS011;8954;48.694;8.940;2023-07-31T13:59:16;315.53;;;181.07;;
17670;SDS011;8954;48.694;8.940;2023-07-31T14:01:42;309.20;;;211.87;;
17670;SDS011;8954;48.694;8.940;2023-07-31T14:04:09;313.77;;;185.17;;
17670;SDS011;8954;48.694;8.940;2023-07-31T14:06:34;315.80;;;180.27;;
17670;SDS011;8954;48.694;8.940;2023-07-31T14:09:00;307.60;;;203.30;;
17670;SDS011;8954;48.694;8.940;2023-07-31T14:11:26;314.60;;;186.50;;
17670;SDS011;8954;48.694;8.940;2023-07-31T14:13:52;320.17;;;187.77;;
17670;SDS011;8954;48.694;8.940;2023-07-31T14:16:17;320.77;;;190.83;;
17670;SDS011;8954;48.694;8.940;2023-07-31T14:18:43;337.90;;;214.60;;
17670;SDS011;8954;48.694;8.940;2023-07-31T14:21:10;322.50;;;196.27;;
17670;SDS011;8954;48.694;8.940;2023-07-31T14:23:36;305.98;;;188.52;;
17670;SDS011;8954;48.694;8.940;2023-07-31T14:26:02;316.30;;;183.17;;
17670;SDS011;8954;48.694;8.940;2023-07-31T14:28:27;315.73;;;172.43;;
17670;SDS011;8954;48.694;8.940;2023-07-31T14:30:53;319.17;;;189.20;;
17670;SDS011;8954;48.694;8.940;2023-07-31T14:33:18;319.40;;;185.17;;
17670;SDS011;8954;48.694;8.940;2023-07-31T14:35:44;313.87;;;170.20;;
17670;SDS011;8954;48.694;8.940;2023-07-31T14:38:09;318.43;;;187.90;;
17670;SDS011;8954;48.694;8.940;2023-07-31T14:40:35;315.83;;;176.87;;
17670;SDS011;8954;48.694;8.940;2023-07-31T14:43:01;315.57;;;178.00;;
